createdAt,value
2022-09-28T00:01:19.187Z,15.93
2022-09-28T00:03:48.475Z,15.87
2022-09-28T00:06:19.427Z,15.90
2022-09-28T00:08:46.833Z,15.90
2022-09-28T00:11:15.487Z,15.89
2022-09-28T00:13:43.823Z,15.87
2022-09-28T00:16:14.596Z,15.85
2022-09-28T00:18:42.093Z,15.86
2022-09-28T00:21:13.731Z,15.85
2022-09-28T00:24:00.288Z,15.85
2022-09-28T00:26:29.197Z,15.82
2022-09-28T00:28:59.843Z,15.78
2022-09-28T00:31:30.118Z,15.75
2022-09-28T00:33:57.167Z,15.68
2022-09-28T00:36:26.955Z,15.72
2022-09-28T00:38:58.292Z,15.71
2022-09-28T00:41:27.522Z,15.70
2022-09-28T00:44:28.328Z,15.66
2022-09-28T00:47:09.040Z,15.65
2022-09-28T00:50:03.199Z,15.63
2022-09-28T00:52:53.200Z,15.61
2022-09-28T00:55:29.693Z,15.59
2022-09-28T00:58:00.373Z,15.56
2022-09-28T01:00:28.107Z,15.52
2022-09-28T01:02:55.408Z,15.56
2022-09-28T01:05:24.240Z,15.56
2022-09-28T01:07:51.306Z,15.55
2022-09-28T01:10:18.340Z,15.52
2022-09-28T01:12:45.287Z,15.54
2022-09-28T01:15:12.387Z,15.51
2022-09-28T01:18:11.710Z,15.49
2022-09-28T01:21:17.351Z,15.47
2022-09-28T01:24:10.368Z,15.46
2022-09-28T01:27:11.687Z,15.44
2022-09-28T01:29:48.317Z,15.45
2022-09-28T01:32:56.248Z,15.44
2022-09-28T01:35:52.755Z,15.42
2022-09-28T01:38:49.252Z,15.41
2022-09-28T01:41:17.910Z,15.40
2022-09-28T01:43:57.570Z,15.43
2022-09-28T01:46:32.983Z,15.41
2022-09-28T01:49:08.852Z,15.43
2022-09-28T01:51:45.960Z,15.43
2022-09-28T01:54:21.343Z,15.43
2022-09-28T01:56:57.825Z,15.42
2022-09-28T01:59:32.480Z,15.41
2022-09-28T02:02:05.865Z,15.42
2022-09-28T02:04:50.691Z,15.41
2022-09-28T02:07:49.861Z,15.38
2022-09-28T02:10:23.080Z,15.37
2022-09-28T02:13:13.748Z,15.36
2022-09-28T02:15:45.832Z,15.37
2022-09-28T02:18:13.300Z,15.31
2022-09-28T02:20:47.619Z,15.33
2022-09-28T02:23:16.417Z,15.32
2022-09-28T02:25:49.815Z,15.27
2022-09-28T02:28:18.868Z,15.34
2022-09-28T02:30:46.188Z,15.31
2022-09-28T02:33:43.402Z,15.24
2022-09-28T02:36:10.976Z,15.27
2022-09-28T02:38:38.923Z,15.27
2022-09-28T02:41:39.971Z,15.22
2022-09-28T02:44:53.567Z,15.21
2022-09-28T02:48:03.447Z,15.18
2022-09-28T02:50:53.395Z,15.15
2022-09-28T02:53:37.186Z,15.15
2022-09-28T02:56:44.119Z,15.11
2022-09-28T02:59:36.399Z,15.06
2022-09-28T03:02:26.423Z,15.04
2022-09-28T03:05:16.966Z,15.02
2022-09-28T03:07:54.562Z,14.94
2022-09-28T03:10:40.957Z,14.90
2022-09-28T03:13:09.146Z,14.93
2022-09-28T03:15:37.211Z,14.94
2022-09-28T03:18:04.441Z,14.94
2022-09-28T03:20:33.623Z,14.89
2022-09-28T03:25:48.824Z,14.91
2022-09-28T03:28:15.699Z,14.91
2022-09-28T03:30:43.465Z,14.94
2022-09-28T03:33:10.567Z,14.94
2022-09-28T03:35:38.459Z,14.97
2022-09-28T03:38:05.388Z,14.96
2022-09-28T03:40:34.635Z,14.95
2022-09-28T03:43:01.654Z,14.95
2022-09-28T03:45:29.004Z,14.96
2022-09-28T03:47:55.928Z,14.97
2022-09-28T03:50:22.833Z,14.97
2022-09-28T03:52:49.688Z,14.99
2022-09-28T03:55:17.263Z,14.98
2022-09-28T03:57:44.162Z,15.00
2022-09-28T04:00:11.738Z,14.98
2022-09-28T04:02:41.229Z,15.00
2022-09-28T04:05:09.305Z,15.02
2022-09-28T04:07:37.727Z,15.01
2022-09-28T04:10:04.889Z,15.00
2022-09-28T04:12:32.181Z,15.00
2022-09-28T04:14:59.065Z,15.00
2022-09-28T04:17:25.972Z,15.01
2022-09-28T04:19:53.543Z,15.01
2022-09-28T04:22:32.213Z,15.01
2022-09-28T04:24:59.142Z,15.02
2022-09-28T04:27:44.917Z,15.03
2022-09-28T04:30:12.466Z,15.04
2022-09-28T04:32:41.929Z,15.05
2022-09-28T04:35:11.936Z,15.04
2022-09-28T04:37:38.795Z,15.05
2022-09-28T04:40:07.831Z,15.04
2022-09-28T04:42:34.847Z,15.08
2022-09-28T04:45:02.205Z,15.09
2022-09-28T04:47:30.527Z,15.11
2022-09-28T04:50:18.947Z,15.10
2022-09-28T04:53:04.600Z,15.09
2022-09-28T04:55:32.603Z,15.08
2022-09-28T04:58:02.954Z,15.06
2022-09-28T05:00:35.283Z,15.08
2022-09-28T05:03:11.633Z,15.06
2022-09-28T05:05:58.785Z,15.06
2022-09-28T05:08:43.453Z,15.03
2022-09-28T05:11:14.211Z,15.03
2022-09-28T05:13:45.696Z,14.97
2022-09-28T05:16:16.204Z,15.00
2022-09-28T05:19:06.966Z,14.99
2022-09-28T05:21:34.162Z,14.91
2022-09-28T05:24:01.224Z,14.93
2022-09-28T05:26:28.160Z,15.00
2022-09-28T05:28:55.058Z,15.01
2022-09-28T05:31:40.541Z,15.02
2022-09-28T05:34:14.582Z,15.03
2022-09-28T05:36:42.791Z,15.05
2022-09-28T05:39:09.758Z,15.07
2022-09-28T05:41:36.726Z,15.04
2022-09-28T05:44:03.992Z,15.05
2022-09-28T05:46:31.091Z,15.10
2022-09-28T05:49:00.603Z,15.12
2022-09-28T05:51:28.363Z,15.16
2022-09-28T05:53:57.084Z,15.18
2022-09-28T05:56:26.992Z,15.21
2022-09-28T05:58:53.924Z,15.24
2022-09-28T06:01:22.899Z,15.27
2022-09-28T06:03:49.963Z,15.29
2022-09-28T06:06:16.848Z,15.31
2022-09-28T06:08:48.336Z,15.33
2022-09-28T06:11:33.758Z,15.36
2022-09-28T06:14:06.663Z,15.37
2022-09-28T06:16:34.900Z,15.38
2022-09-28T06:19:02.301Z,15.41
2022-09-28T06:21:42.528Z,15.41
2022-09-28T06:24:09.483Z,15.41
2022-09-28T06:26:37.389Z,15.37
2022-09-28T06:29:05.293Z,15.45
2022-09-28T06:31:32.303Z,15.46
2022-09-28T06:34:01.828Z,15.49
2022-09-28T06:36:31.280Z,15.50
2022-09-28T06:38:58.290Z,15.51
2022-09-28T06:41:25.263Z,15.47
2022-09-28T06:43:52.248Z,15.52
2022-09-28T06:46:38.809Z,15.53
2022-09-28T06:49:27.769Z,15.56
2022-09-28T06:52:13.035Z,15.55
2022-09-28T06:54:58.333Z,15.55
2022-09-28T06:57:40.924Z,15.58
2022-09-28T07:00:08.757Z,15.59
2022-09-28T07:02:35.906Z,15.61
2022-09-28T07:05:13.852Z,15.60
2022-09-28T07:07:58.418Z,15.60
2022-09-28T07:10:56.343Z,15.62
2022-09-28T07:13:50.368Z,15.66
2022-09-28T07:16:24.268Z,15.70
2022-09-28T07:18:53.550Z,15.75
2022-09-28T07:21:28.811Z,15.74
2022-09-28T07:23:57.198Z,15.81
2022-09-28T07:26:25.598Z,15.73
2022-09-28T07:29:03.517Z,15.82
2022-09-28T07:31:48.759Z,15.80
2022-09-28T07:34:41.229Z,15.80
2022-09-28T07:37:18.796Z,15.75
2022-09-28T07:40:05.389Z,15.83
2022-09-28T07:42:36.255Z,15.86
2022-09-28T07:45:03.618Z,15.86
2022-09-28T07:47:34.891Z,15.88
2022-09-28T07:50:13.079Z,15.90
2022-09-28T07:52:49.396Z,15.90
2022-09-28T07:55:30.006Z,15.94
2022-09-28T07:58:14.435Z,16.03
2022-09-28T08:01:01.081Z,16.07
2022-09-28T08:03:28.296Z,16.11
2022-09-28T08:06:00.314Z,16.20
2022-09-28T08:08:27.537Z,16.28
2022-09-28T08:13:46.357Z,16.40
2022-09-28T08:16:28.101Z,16.45
2022-09-28T08:19:14.257Z,16.52
2022-09-28T08:21:47.369Z,16.57
2022-09-28T08:24:16.655Z,16.58
2022-09-28T08:26:44.855Z,16.59
2022-09-28T08:29:15.272Z,16.57
2022-09-28T08:31:51.205Z,16.52
2022-09-28T08:34:40.351Z,16.54
2022-09-28T08:37:23.648Z,16.48
2022-09-28T08:40:20.394Z,16.52
2022-09-28T08:43:04.610Z,16.58
2022-09-28T08:45:59.397Z,16.70
2022-09-28T08:49:25.759Z,16.86
2022-09-28T08:52:26.275Z,16.93
2022-09-28T08:55:36.828Z,17.04
2022-09-28T08:58:17.016Z,17.06
2022-09-28T09:00:50.356Z,17.07
2022-09-28T09:03:29.911Z,17.06
2022-09-28T09:06:46.712Z,17.08
2022-09-28T09:10:04.215Z,17.09
2022-09-28T09:13:11.366Z,17.12
2022-09-28T09:16:15.174Z,17.16
2022-09-28T09:19:38.143Z,17.24
2022-09-28T09:22:45.197Z,17.33
2022-09-28T09:25:42.819Z,17.46
2022-09-28T09:28:43.620Z,17.58
2022-09-28T09:31:38.226Z,17.62
2022-09-28T09:34:47.052Z,17.75
2022-09-28T09:38:20.558Z,17.87
2022-09-28T09:41:36.421Z,17.99
2022-09-28T09:45:03.624Z,18.04
2022-09-28T09:48:12.535Z,18.13
2022-09-28T09:50:49.674Z,18.22
2022-09-28T09:53:29.528Z,18.26
2022-09-28T09:56:15.844Z,18.28
2022-09-28T09:59:10.069Z,18.29
2022-09-28T10:01:46.407Z,18.30
2022-09-28T10:04:40.849Z,18.32
2022-09-28T10:07:42.578Z,18.32
2022-09-28T10:10:24.028Z,18.32
2022-09-28T10:12:54.115Z,18.35
2022-09-28T10:15:31.591Z,18.34
2022-09-28T10:18:16.587Z,18.34
2022-09-28T10:21:02.108Z,18.35
2022-09-28T10:23:44.868Z,18.33
2022-09-28T10:26:29.330Z,18.28
2022-09-28T10:29:03.098Z,18.24
2022-09-28T10:31:51.374Z,18.18
2022-09-28T10:34:35.760Z,18.16
2022-09-28T10:37:11.404Z,18.10
2022-09-28T10:39:59.220Z,18.09
2022-09-28T10:42:32.835Z,18.08
2022-09-28T10:45:05.182Z,18.06
2022-09-28T10:47:35.704Z,18.03
2022-09-28T10:50:27.617Z,18.01
2022-09-28T10:53:20.474Z,17.98
2022-09-28T10:56:18.464Z,17.96
2022-09-28T10:58:46.897Z,17.94
2022-09-28T11:01:29.383Z,17.93
2022-09-28T11:04:01.700Z,17.90
2022-09-28T11:06:32.060Z,17.88
2022-09-28T11:09:27.223Z,17.78
2022-09-28T11:12:02.939Z,17.87
2022-09-28T11:14:41.140Z,17.79
2022-09-28T11:17:30.824Z,17.88
2022-09-28T11:20:24.710Z,17.91
2022-09-28T11:23:20.689Z,17.91
2022-09-28T11:26:20.508Z,17.94
2022-09-28T11:28:52.795Z,17.98
2022-09-28T11:31:29.508Z,18.04
2022-09-28T11:34:57.532Z,18.12
2022-09-28T11:38:09.572Z,18.22
2022-09-28T11:41:07.432Z,18.32
2022-09-28T11:43:54.548Z,18.34
2022-09-28T11:47:26.223Z,18.25
2022-09-28T11:50:40.077Z,18.10
2022-09-28T11:53:44.024Z,18.06
2022-09-28T11:56:42.038Z,18.14
2022-09-28T11:59:12.028Z,18.29
2022-09-28T12:01:52.424Z,18.42
2022-09-28T12:05:27.015Z,18.59
2022-09-28T12:08:18.728Z,18.74
2022-09-28T12:11:20.615Z,18.93
2022-09-28T12:14:43.176Z,19.09
2022-09-28T12:17:35.537Z,19.16
2022-09-28T12:20:27.339Z,19.25
2022-09-28T12:22:59.459Z,19.32
2022-09-28T12:25:33.356Z,19.39
2022-09-28T12:28:26.833Z,19.44
2022-09-28T12:30:57.492Z,19.51
2022-09-28T12:33:24.581Z,19.60
2022-09-28T12:36:48.811Z,19.69
2022-09-28T12:40:00.399Z,19.79
2022-09-28T12:43:20.028Z,19.81
2022-09-28T12:46:17.269Z,19.78
2022-09-28T12:50:01.869Z,19.90
2022-09-28T12:52:23.224Z,20.03
2022-09-28T12:55:21.943Z,20.18
2022-09-28T12:58:10.972Z,20.14
2022-09-28T13:01:17.063Z,20.23
2022-09-28T13:04:02.199Z,20.28
2022-09-28T13:07:06.616Z,20.33
2022-09-28T13:09:58.425Z,20.22
2022-09-28T13:13:00.121Z,20.17
2022-09-28T13:15:43.428Z,20.05
2022-09-28T13:18:38.550Z,19.96
2022-09-28T13:21:36.301Z,19.93
2022-09-28T13:24:27.867Z,19.96
2022-09-28T13:26:54.775Z,19.97
2022-09-28T13:29:23.073Z,19.98
2022-09-28T13:31:59.238Z,19.96
2022-09-28T13:34:30.156Z,20.00
2022-09-28T13:37:16.783Z,19.99
2022-09-28T13:39:53.602Z,19.98
2022-09-28T13:42:44.815Z,19.96
2022-09-28T13:45:20.642Z,19.92
2022-09-28T13:48:20.457Z,19.64
2022-09-28T13:51:32.233Z,19.33
2022-09-28T13:54:27.569Z,19.10
2022-09-28T13:57:19.579Z,18.86
2022-09-28T14:00:38.131Z,18.57
2022-09-28T14:03:27.539Z,18.42
2022-09-28T14:06:11.516Z,18.33
2022-09-28T14:09:23.841Z,18.22
2022-09-28T14:12:15.999Z,18.16
2022-09-28T14:14:50.265Z,18.09
2022-09-28T14:17:25.814Z,18.08
2022-09-28T14:20:11.194Z,17.99
2022-09-28T14:23:09.080Z,17.98
2022-09-28T14:25:59.181Z,17.95
2022-09-28T14:29:06.037Z,17.90
2022-09-28T14:31:42.689Z,18.05
2022-09-28T14:34:34.107Z,18.13
2022-09-28T14:37:23.891Z,18.21
2022-09-28T14:40:10.205Z,18.23
2022-09-28T14:42:37.144Z,18.22
2022-09-28T14:45:06.644Z,18.19
2022-09-28T14:48:03.135Z,18.15
2022-09-28T14:50:30.409Z,18.11
2022-09-28T14:53:12.412Z,18.09
2022-09-28T14:56:00.542Z,18.05
2022-09-28T14:58:29.829Z,18.09
2022-09-28T15:01:12.602Z,18.05
2022-09-28T15:03:42.575Z,18.06
2022-09-28T15:06:16.156Z,18.05
2022-09-28T15:08:43.321Z,18.05
2022-09-28T15:11:23.467Z,18.04
2022-09-28T15:13:55.591Z,18.07
2022-09-28T15:16:24.588Z,18.02
2022-09-28T15:19:34.377Z,17.98
2022-09-28T15:22:01.288Z,18.00
2022-09-28T15:24:34.692Z,17.97
2022-09-28T15:27:10.239Z,17.99
2022-09-28T15:29:37.144Z,18.00
2022-09-28T15:32:04.673Z,18.01
2022-09-28T15:34:51.584Z,17.99
2022-09-28T15:37:39.638Z,17.92
2022-09-28T15:40:16.687Z,17.83
2022-09-28T15:42:45.249Z,17.77
2022-09-28T15:45:26.700Z,17.69
2022-09-28T15:48:18.533Z,17.62
2022-09-28T15:51:12.208Z,17.54
2022-09-28T15:54:10.811Z,17.51
2022-09-28T15:57:02.387Z,17.42
2022-09-28T15:59:36.751Z,17.36
2022-09-28T16:02:22.669Z,17.28
2022-09-28T16:04:59.055Z,17.24
2022-09-28T16:07:41.627Z,17.19
2022-09-28T16:10:15.316Z,17.14
2022-09-28T16:12:54.501Z,17.09
2022-09-28T16:15:29.262Z,17.03
2022-09-28T16:18:03.333Z,16.97
2022-09-28T16:20:34.122Z,16.93
2022-09-28T16:23:18.264Z,16.82
2022-09-28T16:26:05.827Z,16.75
2022-09-28T16:28:38.063Z,16.70
2022-09-28T16:31:24.203Z,16.60
2022-09-28T16:33:58.942Z,16.57
2022-09-28T16:36:29.828Z,16.52
2022-09-28T16:38:56.746Z,16.46
2022-09-28T16:41:26.886Z,16.38
2022-09-28T16:44:02.357Z,16.35
2022-09-28T16:46:37.347Z,16.30
2022-09-28T16:49:06.746Z,16.25
2022-09-28T16:51:33.963Z,16.23
2022-09-28T16:54:34.857Z,16.17
2022-09-28T16:57:03.620Z,16.14
2022-09-28T16:59:30.797Z,16.06
2022-09-28T17:01:57.821Z,16.07
2022-09-28T17:04:25.796Z,16.03
2022-09-28T17:06:54.833Z,16.02
2022-09-28T17:09:22.773Z,15.97
2022-09-28T17:11:56.009Z,15.95
2022-09-28T17:14:24.113Z,15.90
2022-09-28T17:17:13.774Z,15.84
2022-09-28T17:19:41.207Z,15.75
2022-09-28T17:22:11.468Z,15.82
2022-09-28T17:24:38.352Z,15.81
2022-09-28T17:27:06.849Z,15.81
2022-09-28T17:29:33.762Z,15.81
2022-09-28T17:32:00.619Z,15.81
2022-09-28T17:34:27.502Z,15.82
2022-09-28T17:36:54.718Z,15.80
2022-09-28T17:39:21.870Z,15.81
2022-09-28T17:41:48.750Z,15.72
2022-09-28T17:44:16.233Z,15.77
2022-09-28T17:46:47.411Z,15.74
2022-09-28T17:49:15.260Z,15.73
2022-09-28T17:51:42.209Z,15.70
2022-09-28T17:54:09.406Z,15.68
2022-09-28T17:56:36.738Z,15.64
2022-09-28T17:59:10.282Z,15.61
2022-09-28T18:01:39.599Z,15.54
2022-09-28T18:04:08.843Z,15.55
2022-09-28T18:06:37.397Z,15.52
2022-09-28T18:09:05.565Z,15.50
2022-09-28T18:11:33.704Z,15.44
2022-09-28T18:14:01.218Z,15.42
2022-09-28T18:16:29.165Z,15.40
2022-09-28T18:18:56.338Z,15.36
2022-09-28T18:21:23.447Z,15.35
2022-09-28T18:23:50.598Z,15.31
2022-09-28T18:26:19.557Z,15.29
2022-09-28T18:28:46.687Z,15.27
2022-09-28T18:31:15.469Z,15.25
2022-09-28T18:33:43.295Z,15.23
2022-09-28T18:36:10.241Z,15.21
2022-09-28T18:38:38.143Z,15.20
2022-09-28T18:41:15.579Z,15.17
2022-09-28T18:43:49.144Z,15.12
2022-09-28T18:46:20.069Z,15.12
2022-09-28T18:48:49.864Z,15.11
2022-09-28T18:51:16.780Z,15.11
2022-09-28T18:53:43.826Z,15.12
2022-09-28T18:56:17.011Z,15.09
2022-09-28T18:58:45.487Z,15.12
2022-09-28T19:01:31.729Z,15.14
2022-09-28T19:04:01.213Z,15.15
2022-09-28T19:06:29.917Z,15.15
2022-09-28T19:08:57.090Z,15.16
2022-09-28T19:11:25.245Z,15.16
2022-09-28T19:13:54.504Z,15.16
2022-09-28T19:16:28.701Z,15.15
2022-09-28T19:18:59.880Z,15.13
2022-09-28T19:21:27.301Z,15.12
2022-09-28T19:23:55.497Z,15.11
2022-09-28T19:26:28.411Z,15.08
2022-09-28T19:28:59.191Z,15.08
2022-09-28T19:31:27.185Z,15.07
2022-09-28T19:33:54.239Z,15.05
2022-09-28T19:36:25.016Z,15.03
2022-09-28T19:38:57.033Z,15.03
2022-09-28T19:41:49.210Z,15.03
2022-09-28T19:44:25.787Z,14.96
2022-09-28T19:47:06.599Z,14.98
2022-09-28T19:49:36.910Z,14.99
2022-09-28T19:52:15.882Z,14.95
2022-09-28T19:54:57.381Z,14.93
2022-09-28T19:57:32.446Z,14.86
2022-09-28T20:00:03.165Z,14.87
2022-09-28T20:02:34.786Z,14.85
2022-09-28T20:05:01.971Z,14.84
2022-09-28T20:07:32.682Z,14.82
2022-09-28T20:09:59.628Z,14.81
2022-09-28T20:12:26.507Z,14.80
2022-09-28T20:14:53.374Z,14.79
2022-09-28T20:17:21.657Z,14.77
2022-09-28T20:19:51.635Z,14.76
2022-09-28T20:22:19.807Z,14.75
2022-09-28T20:24:46.703Z,14.75
2022-09-28T20:27:13.573Z,14.74
2022-09-28T20:29:40.476Z,14.73
2022-09-28T20:32:07.447Z,14.72
2022-09-28T20:34:34.353Z,14.68
2022-09-28T20:37:01.534Z,14.66
2022-09-28T20:39:28.669Z,14.64
2022-09-28T20:41:57.583Z,14.61
2022-09-28T20:44:24.799Z,14.58
2022-09-28T20:46:52.124Z,14.55
2022-09-28T20:49:19.009Z,14.51
2022-09-28T20:51:45.974Z,14.45
2022-09-28T20:54:12.848Z,14.37
2022-09-28T20:56:39.721Z,14.36
2022-09-28T20:59:12.804Z,14.32
2022-09-28T21:01:40.748Z,14.28
2022-09-28T21:04:09.930Z,14.25
2022-09-28T21:06:39.977Z,14.19
2022-09-28T21:09:09.059Z,14.15
2022-09-28T21:11:36.812Z,14.14
2022-09-28T21:14:06.711Z,14.09
2022-09-28T21:16:35.068Z,14.05
2022-09-28T21:19:02.426Z,14.03
2022-09-28T21:21:29.443Z,13.99
2022-09-28T21:23:57.506Z,13.94
2022-09-28T21:26:27.847Z,13.95
2022-09-28T21:28:57.835Z,13.94
2022-09-28T21:31:29.568Z,13.91
2022-09-28T21:33:57.594Z,13.89
2022-09-28T21:36:25.053Z,13.88
2022-09-28T21:38:51.992Z,13.81
2022-09-28T21:41:18.873Z,13.83
2022-09-28T21:43:46.189Z,13.77
2022-09-28T21:46:13.238Z,13.80
2022-09-28T21:48:40.505Z,13.78
2022-09-28T21:51:10.696Z,13.77
2022-09-28T21:53:38.400Z,13.76
2022-09-28T21:56:09.636Z,13.75
2022-09-28T21:58:36.772Z,13.72
2022-09-28T22:01:21.788Z,13.70
2022-09-28T22:03:52.205Z,13.64
2022-09-28T22:06:22.230Z,13.66
2022-09-28T22:08:50.494Z,13.64
2022-09-28T22:11:27.070Z,13.59
2022-09-28T22:13:57.953Z,13.57
2022-09-28T22:16:29.331Z,13.56
2022-09-28T22:18:56.879Z,13.54
2022-09-28T22:21:33.322Z,13.53
2022-09-28T22:24:02.221Z,13.52
2022-09-28T22:26:31.788Z,13.50
2022-09-28T22:29:02.113Z,13.49
2022-09-28T22:31:35.950Z,13.47
2022-09-28T22:34:03.786Z,13.45
2022-09-28T22:36:31.011Z,13.39
2022-09-28T22:38:59.388Z,13.42
2022-09-28T22:41:26.592Z,13.39
2022-09-28T22:43:54.759Z,13.38
2022-09-28T22:46:31.720Z,13.34
2022-09-28T22:48:59.334Z,13.34
2022-09-28T22:51:29.222Z,13.32
2022-09-28T22:53:56.707Z,13.30
2022-09-28T22:56:23.981Z,13.27
2022-09-28T22:58:50.882Z,13.26
2022-09-28T23:01:29.532Z,13.20
2022-09-28T23:03:57.921Z,13.22
2022-09-28T23:06:28.314Z,13.19
2022-09-28T23:08:55.209Z,13.16
2022-09-28T23:11:22.184Z,13.15
2022-09-28T23:13:55.476Z,13.14
2022-09-28T23:16:25.401Z,13.12
2022-09-28T23:18:54.720Z,13.11
2022-09-28T23:21:25.089Z,13.08
2022-09-28T23:24:03.014Z,13.05
2022-09-28T23:26:32.694Z,13.05
2022-09-28T23:29:00.413Z,13.04
2022-09-28T23:31:30.367Z,13.02
2022-09-28T23:34:04.205Z,13.00
2022-09-28T23:36:31.850Z,12.99
2022-09-28T23:38:58.985Z,12.98
2022-09-28T23:41:25.868Z,12.97
2022-09-28T23:43:52.755Z,12.96
2022-09-28T23:46:20.926Z,12.95
2022-09-28T23:48:49.316Z,12.95
2022-09-28T23:51:16.340Z,12.94
2022-09-28T23:53:43.595Z,12.93
2022-09-28T23:56:10.689Z,12.94
2022-09-28T23:58:37.569Z,12.92
